Orlando, West Virginia
Current Conditions -  °F | °C
As of 2:35 AM on Wednesday 22 Oct 2014 (Local Time) from KW22 Reporting Station
Haze Haze  
Wind Chill: 39°   Ceiling: 200
Heat Index: 43°   Visibility: 4mi
Dew Point: 43°   Wind: 6mph
Humidity: 100%   Direction: 320°NW
Pressure: 30.03"   Gusts: 13mph
Location:  38.87°N, 80.59°W
Report Text: KW22 220635Z AUTO 32005G11KT 4SM BR OVC002 06/06 A3003 RMK AO2
Loading
Personal Weather Stations






























Interactive Weather Map
Tropical Storm Tracking
New forecast layout! Learn more

10-Day Weather Forecast

Advertisements
Track Severe Weather on mobile